createdAt,value
2022-08-22T00:01:11.368Z,16.40
2022-08-22T00:02:57.843Z,17.20
2022-08-22T00:03:00.667Z,18.80
2022-08-22T00:03:00.669Z,17.80
2022-08-22T00:03:02.383Z,21.10
2022-08-22T00:03:27.018Z,16.40
2022-08-22T00:05:34.280Z,16.50
2022-08-22T00:09:58.245Z,16.50
2022-08-22T00:12:17.495Z,16.50
2022-08-22T00:14:24.847Z,16.40
2022-08-22T00:16:34.307Z,16.40
2022-08-22T00:21:01.649Z,16.40
2022-08-22T00:23:08.952Z,16.30
2022-08-22T00:25:26.272Z,16.20
2022-08-22T00:27:34.303Z,16.20
2022-08-22T00:29:42.060Z,16.10
2022-08-22T00:31:51.422Z,16.00
2022-08-22T00:33:59.816Z,15.90
2022-08-22T00:36:18.792Z,15.80
2022-08-22T00:38:26.896Z,15.70
2022-08-22T00:43:13.660Z,15.70
2022-08-22T00:45:52.672Z,15.60
2022-08-22T00:48:10.700Z,15.60
2022-08-22T00:50:30.184Z,15.60
2022-08-22T00:53:00.096Z,15.60
2022-08-22T00:55:34.859Z,15.50
2022-08-22T01:00:14.197Z,15.60
2022-08-22T01:02:27.788Z,15.60
2022-08-22T01:07:05.997Z,15.60
2022-08-22T01:11:55.014Z,15.60
2022-08-22T01:14:07.654Z,15.70
2022-08-22T01:18:47.564Z,15.30
2022-08-22T01:21:20.706Z,15.40
2022-08-22T01:26:38.847Z,15.40
2022-08-22T01:28:58.046Z,15.40
2022-08-22T01:31:30.729Z,15.30
2022-08-22T01:34:12.839Z,15.20
2022-08-22T01:36:59.456Z,15.10
2022-08-22T01:39:16.783Z,14.90
2022-08-22T01:44:15.563Z,14.70
2022-08-22T01:46:29.248Z,14.70
2022-08-22T01:48:37.139Z,14.70
2022-08-22T01:53:03.405Z,14.80
2022-08-22T01:55:12.152Z,14.80
2022-08-22T01:57:17.074Z,14.80
2022-08-22T01:59:26.019Z,14.90
2022-08-22T02:01:42.107Z,14.90
2022-08-22T02:06:15.856Z,14.90
2022-08-22T02:08:24.634Z,14.90
2022-08-22T02:13:03.913Z,14.90
2022-08-22T02:15:15.475Z,15.00
2022-08-22T02:17:22.721Z,15.00
2022-08-22T02:19:37.426Z,14.90
2022-08-22T02:24:05.467Z,14.90
2022-08-22T02:26:12.431Z,15.00
2022-08-22T02:28:57.076Z,15.00
2022-08-22T02:33:14.685Z,14.90
2022-08-22T02:37:39.821Z,14.90
2022-08-22T02:39:48.029Z,14.90
2022-08-22T02:44:18.840Z,14.70
2022-08-22T02:46:27.864Z,14.60
2022-08-22T02:48:36.600Z,14.50
2022-08-22T02:51:01.091Z,14.50
2022-08-22T02:53:10.910Z,14.50
2022-08-22T02:55:19.428Z,14.40
2022-08-22T02:57:27.204Z,14.40
2022-08-22T03:01:50.692Z,14.40
2022-08-22T03:04:15.133Z,14.40
2022-08-22T03:06:36.612Z,14.50
2022-08-22T03:08:47.494Z,14.50
2022-08-22T03:10:56.775Z,14.50
2022-08-22T03:13:04.934Z,14.50
2022-08-22T03:15:12.583Z,14.40
2022-08-22T03:17:19.790Z,14.40
2022-08-22T03:19:27.385Z,14.40
2022-08-22T03:21:34.814Z,14.40
2022-08-22T03:23:41.964Z,14.40
2022-08-22T03:28:11.816Z,14.40
2022-08-22T03:30:20.259Z,14.40
2022-08-22T03:32:27.172Z,14.50
2022-08-22T03:34:30.688Z,14.50
2022-08-22T03:36:36.933Z,14.50
2022-08-22T03:41:49.671Z,14.50
2022-08-22T03:46:46.672Z,11.70
2022-08-22T03:49:18.810Z,14.40
2022-08-22T03:51:33.831Z,14.40
2022-08-22T03:54:07.727Z,14.30
2022-08-22T03:56:24.680Z,14.40
2022-08-22T03:58:42.871Z,14.30
2022-08-22T04:01:26.188Z,14.30
2022-08-22T04:04:22.735Z,14.20
2022-08-22T04:09:43.585Z,14.10
2022-08-22T04:12:15.303Z,14.10
2022-08-22T04:15:07.394Z,14.10
2022-08-22T04:20:39.928Z,14.10
2022-08-22T04:25:34.606Z,14.00
2022-08-22T04:27:42.085Z,14.00
2022-08-22T04:29:49.529Z,13.90
2022-08-22T04:34:13.548Z,13.90
2022-08-22T04:36:21.848Z,13.80
2022-08-22T04:38:29.696Z,13.80
2022-08-22T04:40:37.240Z,13.80
2022-08-22T04:42:44.736Z,13.90
2022-08-22T04:47:14.549Z,13.90
2022-08-22T04:49:22.015Z,13.80
2022-08-22T04:51:31.577Z,13.90
2022-08-22T04:53:51.551Z,13.90
2022-08-22T04:56:07.284Z,13.90
2022-08-22T04:58:16.562Z,14.00
2022-08-22T05:00:20.739Z,13.90
2022-08-22T05:02:27.472Z,13.90
2022-08-22T05:04:34.671Z,13.80
2022-08-22T05:06:41.283Z,13.80
2022-08-22T05:08:48.448Z,13.90
2022-08-22T05:10:54.701Z,13.90
2022-08-22T05:15:23.487Z,13.90
2022-08-22T05:17:29.723Z,14.00
2022-08-22T05:19:36.852Z,14.00
2022-08-22T05:21:45.539Z,14.00
2022-08-22T05:26:14.743Z,14.10
2022-08-22T05:28:23.620Z,14.00
2022-08-22T05:32:55.002Z,14.00
2022-08-22T05:37:22.484Z,14.00
2022-08-22T05:39:29.324Z,14.00
2022-08-22T05:41:36.716Z,14.10
2022-08-22T05:43:43.004Z,14.20
2022-08-22T05:45:48.441Z,14.30
2022-08-22T05:47:55.200Z,14.40
2022-08-22T05:52:19.780Z,14.60
2022-08-22T05:54:33.819Z,14.70
2022-08-22T05:56:38.128Z,14.80
2022-08-22T05:58:50.188Z,14.90
2022-08-22T06:03:17.692Z,15.00
2022-08-22T06:05:25.564Z,15.00
2022-08-22T06:07:32.807Z,15.00
2022-08-22T06:09:41.834Z,15.00
2022-08-22T06:11:51.979Z,15.00
2022-08-22T06:13:58.153Z,15.00
2022-08-22T06:16:09.374Z,15.00
2022-08-22T06:18:16.235Z,14.90
2022-08-22T06:20:23.172Z,14.90
2022-08-22T06:22:29.610Z,14.90
2022-08-22T06:24:36.361Z,15.00
2022-08-22T06:26:47.122Z,15.00
2022-08-22T06:28:55.208Z,15.00
2022-08-22T06:30:59.296Z,15.10
2022-08-22T06:33:06.564Z,15.20
2022-08-22T06:37:33.200Z,15.30
2022-08-22T06:39:40.472Z,15.40
2022-08-22T06:41:49.068Z,15.40
2022-08-22T06:43:53.472Z,15.40
2022-08-22T06:45:57.318Z,15.50
2022-08-22T06:48:12.745Z,15.50
2022-08-22T06:50:20.673Z,15.50
2022-08-22T06:52:27.199Z,15.60
2022-08-22T06:54:35.867Z,15.70
2022-08-22T06:56:42.246Z,15.70
2022-08-22T06:58:48.752Z,15.80
2022-08-22T07:01:05.701Z,15.90
2022-08-22T07:03:06.637Z,16.00
2022-08-22T07:05:16.313Z,16.00
2022-08-22T07:07:22.335Z,16.20
2022-08-22T07:11:44.296Z,16.50
2022-08-22T07:13:51.934Z,16.60
2022-08-22T07:15:59.196Z,16.70
2022-08-22T07:18:05.576Z,16.90
2022-08-22T07:20:14.963Z,17.00
2022-08-22T07:24:40.213Z,17.20
2022-08-22T07:26:47.904Z,17.40
2022-08-22T07:28:58.620Z,17.50
2022-08-22T07:31:03.862Z,17.70
2022-08-22T07:33:26.874Z,17.80
2022-08-22T07:35:21.454Z,17.90
2022-08-22T07:37:28.800Z,18.00
2022-08-22T07:39:36.202Z,18.20
2022-08-22T07:44:06.307Z,18.50
2022-08-22T07:48:48.499Z,18.60
2022-08-22T07:53:07.196Z,19.00
2022-08-22T07:55:15.193Z,19.10
2022-08-22T07:57:23.419Z,19.20
2022-08-22T07:59:29.480Z,19.40
2022-08-22T08:01:35.020Z,19.60
2022-08-22T08:03:39.768Z,19.70
2022-08-22T08:05:45.800Z,19.90
2022-08-22T08:07:51.363Z,20.10
2022-08-22T08:09:59.003Z,20.20
2022-08-22T08:12:05.254Z,20.30
2022-08-22T08:14:13.643Z,20.40
2022-08-22T08:16:19.934Z,20.60
2022-08-22T08:18:26.247Z,20.70
2022-08-22T08:20:31.975Z,21.00
2022-08-22T08:22:37.505Z,21.10
2022-08-22T08:24:45.093Z,21.20
2022-08-22T08:27:10.720Z,21.30
2022-08-22T08:29:18.197Z,21.30
2022-08-22T08:31:27.798Z,21.30
2022-08-22T08:33:33.347Z,21.40
2022-08-22T08:35:42.382Z,21.60
2022-08-22T08:40:09.270Z,22.10
2022-08-22T08:42:24.783Z,22.40
2022-08-22T08:49:58.224Z,23.00
2022-08-22T08:52:14.180Z,23.40
2022-08-22T08:54:28.906Z,23.50
2022-08-22T08:56:38.063Z,23.40
2022-08-22T08:58:47.413Z,23.70
2022-08-22T09:00:57.521Z,23.70
2022-08-22T09:03:09.260Z,24.00
2022-08-22T09:05:46.428Z,24.00
2022-08-22T09:08:55.826Z,24.10
2022-08-22T09:11:09.669Z,24.10
2022-08-22T09:18:37.788Z,24.60
2022-08-22T09:21:04.687Z,24.60
2022-08-22T09:23:31.824Z,24.60
2022-08-22T09:25:39.927Z,24.80
2022-08-22T09:27:47.813Z,24.90
2022-08-22T09:29:57.242Z,25.00
2022-08-22T09:32:05.916Z,25.20
2022-08-22T09:34:23.960Z,25.00
2022-08-22T09:36:25.446Z,25.20
2022-08-22T09:43:35.219Z,25.20
2022-08-22T09:48:07.581Z,25.10
2022-08-22T09:50:13.439Z,25.30
2022-08-22T09:52:32.009Z,25.50
2022-08-22T09:54:37.194Z,25.60
2022-08-22T09:56:49.724Z,25.80
2022-08-22T09:59:00.902Z,25.90
2022-08-22T10:01:08.942Z,25.90
2022-08-22T10:03:16.919Z,26.10
2022-08-22T10:05:40.835Z,26.30
2022-08-22T10:07:51.555Z,26.40
2022-08-22T10:09:58.316Z,26.60
2022-08-22T10:12:12.919Z,26.60
2022-08-22T10:14:21.996Z,26.50
2022-08-22T10:16:30.355Z,26.40
2022-08-22T10:18:43.907Z,26.70
2022-08-22T10:20:52.532Z,26.80
2022-08-22T10:23:02.363Z,26.70
2022-08-22T10:25:13.356Z,26.70
2022-08-22T10:27:20.612Z,26.90
2022-08-22T10:29:52.180Z,27.10
2022-08-22T10:32:00.054Z,27.10
2022-08-22T10:36:30.026Z,27.10
2022-08-22T10:38:46.239Z,27.20
2022-08-22T10:43:08.208Z,27.40
2022-08-22T10:45:35.399Z,27.10
2022-08-22T10:47:32.744Z,27.10
2022-08-22T10:52:00.035Z,27.40
2022-08-22T10:54:29.064Z,27.50
2022-08-22T10:56:36.661Z,27.60
2022-08-22T11:01:01.255Z,27.50
2022-08-22T11:03:18.697Z,27.40
2022-08-22T11:05:28.448Z,27.60
2022-08-22T11:07:48.713Z,27.80
2022-08-22T11:09:54.622Z,27.90
2022-08-22T11:14:54.401Z,28.00
2022-08-22T11:17:12.049Z,28.00
2022-08-22T11:19:16.123Z,28.10
2022-08-22T11:23:47.736Z,28.40
2022-08-22T11:25:56.804Z,28.40
2022-08-22T11:31:00.608Z,28.60
2022-08-22T11:33:18.002Z,28.70
2022-08-22T11:35:25.233Z,28.80
2022-08-22T11:40:07.402Z,28.90
2022-08-22T11:42:21.911Z,28.80
2022-08-22T11:46:45.716Z,29.00
2022-08-22T11:51:14.042Z,29.20
2022-08-22T11:53:27.196Z,29.00
2022-08-22T11:57:52.872Z,29.10
2022-08-22T12:00:02.781Z,29.20
2022-08-22T12:02:11.938Z,29.30
2022-08-22T12:04:19.832Z,29.20
2022-08-22T12:06:36.206Z,29.10
2022-08-22T12:11:29.617Z,29.20
2022-08-22T12:13:39.153Z,29.10
2022-08-22T12:18:36.416Z,28.80
2022-08-22T12:23:43.708Z,28.60
2022-08-22T12:28:15.762Z,29.00
2022-08-22T12:30:28.415Z,29.10
2022-08-22T12:33:22.996Z,29.10
2022-08-22T12:35:34.932Z,29.10
2022-08-22T12:37:53.131Z,29.40
2022-08-22T12:40:15.478Z,29.30
2022-08-22T12:42:55.492Z,29.10
2022-08-22T12:47:35.642Z,29.40
2022-08-22T12:55:03.213Z,28.50
2022-08-22T12:57:23.759Z,28.70
2022-08-22T12:59:27.232Z,28.80
2022-08-22T13:01:37.047Z,28.70
2022-08-22T13:06:04.086Z,28.50
2022-08-22T13:08:13.446Z,28.30
2022-08-22T13:10:44.867Z,28.20
2022-08-22T13:12:52.321Z,28.30
2022-08-22T13:14:59.774Z,28.40
2022-08-22T13:17:10.243Z,28.40
2022-08-22T13:19:15.723Z,28.30
2022-08-22T13:21:24.521Z,28.20
2022-08-22T13:23:31.551Z,28.30
2022-08-22T13:25:44.535Z,28.20
2022-08-22T13:30:07.574Z,28.10
2022-08-22T13:32:18.913Z,28.10
2022-08-22T13:34:32.600Z,28.00
2022-08-22T13:36:43.146Z,28.00
2022-08-22T13:41:08.931Z,27.80
2022-08-22T13:43:15.559Z,27.80
2022-08-22T13:45:22.767Z,28.00
2022-08-22T13:47:31.704Z,28.00
2022-08-22T13:49:35.858Z,28.00
2022-08-22T13:51:44.704Z,27.80
2022-08-22T13:54:01.005Z,27.90
2022-08-22T13:56:06.651Z,27.80
2022-08-22T13:58:17.119Z,27.90
2022-08-22T14:00:57.955Z,27.90
2022-08-22T14:03:09.570Z,27.90
2022-08-22T14:07:35.731Z,28.00
2022-08-22T14:09:42.973Z,28.10
2022-08-22T14:11:49.895Z,28.20
2022-08-22T14:16:20.868Z,28.30
2022-08-22T14:18:31.590Z,28.20
2022-08-22T14:20:37.389Z,28.20
2022-08-22T14:22:44.608Z,28.20
2022-08-22T14:24:55.711Z,28.20
2022-08-22T14:27:05.704Z,28.10
2022-08-22T14:29:09.357Z,28.10
2022-08-22T14:31:13.951Z,27.90
2022-08-22T14:33:20.940Z,27.90
2022-08-22T14:35:37.568Z,27.80
2022-08-22T14:37:39.048Z,27.70
2022-08-22T14:42:09.957Z,27.40
2022-08-22T14:44:19.793Z,27.20
2022-08-22T14:46:28.500Z,27.10
2022-08-22T14:48:40.688Z,27.00
2022-08-22T14:50:47.517Z,27.00
2022-08-22T14:55:16.155Z,27.00
2022-08-22T14:59:42.943Z,26.90
2022-08-22T15:01:56.229Z,26.90
2022-08-22T15:06:34.636Z,26.90
2022-08-22T15:08:42.678Z,26.80
2022-08-22T15:10:49.486Z,26.50
2022-08-22T15:12:58.953Z,26.30
2022-08-22T15:15:05.105Z,26.10
2022-08-22T15:17:10.118Z,26.10
2022-08-22T15:21:41.570Z,26.10
2022-08-22T15:23:46.657Z,26.20
2022-08-22T15:25:59.652Z,26.10
2022-08-22T15:28:07.693Z,26.20
2022-08-22T15:30:18.704Z,26.10
2022-08-22T15:32:23.470Z,26.20
2022-08-22T15:34:33.230Z,26.20
2022-08-22T15:36:38.668Z,26.20
2022-08-22T15:38:47.884Z,26.20
2022-08-22T15:40:49.505Z,26.20
2022-08-22T15:42:54.097Z,26.10
2022-08-22T15:44:59.356Z,26.00
2022-08-22T15:47:23.840Z,25.90
2022-08-22T15:51:44.713Z,25.80
2022-08-22T15:54:02.913Z,25.80
2022-08-22T15:56:36.089Z,25.70
2022-08-22T15:58:48.824Z,25.70
2022-08-22T16:00:54.014Z,25.70
2022-08-22T16:03:02.544Z,25.60
2022-08-22T16:07:43.288Z,25.60
2022-08-22T16:09:50.282Z,25.60
2022-08-22T16:11:55.674Z,25.60
2022-08-22T16:14:18.161Z,25.70
2022-08-22T16:17:08.807Z,25.60
2022-08-22T16:19:19.624Z,25.60
2022-08-22T16:21:59.717Z,25.60
2022-08-22T16:24:34.180Z,25.50
2022-08-22T16:26:42.335Z,25.50
2022-08-22T16:29:00.757Z,25.50
2022-08-22T16:31:01.696Z,25.50
2022-08-22T16:33:06.970Z,25.50
2022-08-22T16:35:14.131Z,25.50
2022-08-22T16:40:15.031Z,25.60
2022-08-22T16:42:25.889Z,25.60
2022-08-22T16:44:43.506Z,25.70
2022-08-22T16:46:48.969Z,25.60
2022-08-22T16:48:59.176Z,25.70
2022-08-22T16:51:10.368Z,25.70
2022-08-22T16:53:55.079Z,25.70
2022-08-22T16:56:19.671Z,25.60
2022-08-22T16:59:23.071Z,25.60
2022-08-22T17:01:23.552Z,25.60
2022-08-22T17:05:51.315Z,25.60
2022-08-22T17:08:02.548Z,25.60
2022-08-22T17:10:31.056Z,25.70
2022-08-22T17:12:42.631Z,25.60
2022-08-22T17:17:14.344Z,25.90
2022-08-22T17:21:59.372Z,26.40
2022-08-22T17:26:31.486Z,26.60
2022-08-22T17:28:40.020Z,26.70
2022-08-22T17:30:48.668Z,26.80
2022-08-22T17:33:06.929Z,26.80
2022-08-22T17:35:23.104Z,26.70
2022-08-22T17:40:28.943Z,26.30
2022-08-22T17:42:44.785Z,26.10
2022-08-22T17:47:10.994Z,25.80
2022-08-22T17:51:42.518Z,25.60
2022-08-22T17:53:50.551Z,25.50
2022-08-22T17:55:59.733Z,25.50
2022-08-22T18:00:29.956Z,25.40
2022-08-22T18:02:38.692Z,25.40
2022-08-22T18:04:47.613Z,25.30
2022-08-22T18:09:13.959Z,25.30
2022-08-22T18:11:21.864Z,25.30
2022-08-22T18:13:36.492Z,25.20
2022-08-22T18:15:45.120Z,25.30
2022-08-22T18:20:08.255Z,25.20
2022-08-22T18:22:15.523Z,25.10
2022-08-22T18:24:22.683Z,25.10
2022-08-22T18:26:31.092Z,25.00
2022-08-22T18:28:41.109Z,24.90
2022-08-22T18:33:16.732Z,24.70
2022-08-22T18:35:25.526Z,24.70
2022-08-22T18:37:44.136Z,24.60
2022-08-22T18:39:52.081Z,24.50
2022-08-22T18:44:20.004Z,24.40
2022-08-22T18:46:43.336Z,24.30
2022-08-22T18:49:13.677Z,24.30
2022-08-22T18:50:52.055Z,24.20
2022-08-22T18:52:55.817Z,24.20
2022-08-22T18:55:28.193Z,24.00
2022-08-22T18:57:47.214Z,23.90
2022-08-22T19:02:34.104Z,23.80
2022-08-22T19:04:48.030Z,23.80
2022-08-22T19:07:16.125Z,23.70
2022-08-22T19:12:08.918Z,23.70
2022-08-22T19:14:29.181Z,23.70
2022-08-22T19:19:18.959Z,23.50
2022-08-22T19:21:46.149Z,23.40
2022-08-22T19:23:52.283Z,23.40
2022-08-22T19:26:32.888Z,23.40
2022-08-22T19:28:37.457Z,23.40
2022-08-22T19:30:46.064Z,23.40
2022-08-22T19:35:21.925Z,23.30
2022-08-22T19:37:32.905Z,23.30
2022-08-22T19:39:54.793Z,23.20
2022-08-22T19:41:59.036Z,23.10
2022-08-22T19:46:22.848Z,23.10
2022-08-22T19:48:29.861Z,23.00
2022-08-22T19:53:13.181Z,22.80
2022-08-22T19:55:22.124Z,22.80
2022-08-22T19:59:51.160Z,22.60
2022-08-22T20:04:47.793Z,22.40
2022-08-22T20:06:56.892Z,22.40
2022-08-22T20:09:10.400Z,22.30
2022-08-22T20:13:36.814Z,22.10
2022-08-22T20:19:00.507Z,22.00
2022-08-22T20:20:59.117Z,22.10
2022-08-22T20:23:06.955Z,22.10
2022-08-22T20:25:17.132Z,22.20
2022-08-22T20:27:24.311Z,22.20
2022-08-22T20:29:30.971Z,22.20
2022-08-22T20:31:36.359Z,22.10
2022-08-22T20:33:42.677Z,22.20
2022-08-22T20:35:52.284Z,22.10
2022-08-22T20:38:07.491Z,22.20
2022-08-22T20:40:38.044Z,22.10
2022-08-22T20:42:26.388Z,22.10
2022-08-22T20:44:33.265Z,22.10
2022-08-22T20:46:46.279Z,22.00
2022-08-22T20:48:52.646Z,22.00
2022-08-22T20:51:04.372Z,21.90
2022-08-22T20:53:12.315Z,21.70
2022-08-22T20:55:19.660Z,21.50
2022-08-22T20:57:23.247Z,21.50
2022-08-22T20:59:31.769Z,21.40
2022-08-22T21:01:38.049Z,21.40
2022-08-22T21:03:45.320Z,21.40
2022-08-22T21:05:49.002Z,21.40
2022-08-22T21:08:05.148Z,21.40
2022-08-22T21:10:31.351Z,21.40
2022-08-22T21:14:51.088Z,21.40
2022-08-22T21:16:54.717Z,21.40
2022-08-22T21:19:00.770Z,21.40
2022-08-22T21:21:17.086Z,21.40
2022-08-22T21:23:16.940Z,21.50
2022-08-22T21:25:21.152Z,21.50
2022-08-22T21:27:28.732Z,21.50
2022-08-22T21:29:34.114Z,21.50
2022-08-22T21:31:42.876Z,21.60
2022-08-22T21:33:49.496Z,21.60
2022-08-22T21:35:59.179Z,21.60
2022-08-22T21:38:03.039Z,21.70
2022-08-22T21:40:14.755Z,21.60
2022-08-22T21:42:23.107Z,21.60
2022-08-22T21:46:45.019Z,21.60
2022-08-22T21:49:01.152Z,21.60
2022-08-22T21:51:29.651Z,21.60
2022-08-22T21:53:33.176Z,21.50
2022-08-22T21:55:42.307Z,21.50
2022-08-22T21:57:45.919Z,21.40
2022-08-22T21:59:59.001Z,21.40
2022-08-22T22:02:01.012Z,21.40
2022-08-22T22:04:04.968Z,21.30
2022-08-22T22:06:08.549Z,21.40
2022-08-22T22:08:12.200Z,21.40
2022-08-22T22:10:18.441Z,21.40
2022-08-22T22:12:22.758Z,21.40
2022-08-22T22:14:26.394Z,21.40
2022-08-22T22:16:30.947Z,21.30
2022-08-22T22:18:36.477Z,21.30
2022-08-22T22:20:40.871Z,21.20
2022-08-22T22:22:46.114Z,21.30
2022-08-22T22:24:50.015Z,21.30
2022-08-22T22:26:53.988Z,21.10
2022-08-22T22:28:58.531Z,21.20
2022-08-22T22:31:03.038Z,21.10
2022-08-22T22:33:06.761Z,21.10
2022-08-22T22:35:10.741Z,21.00
2022-08-22T22:37:16.468Z,21.00
2022-08-22T22:39:20.132Z,21.10
2022-08-22T22:41:25.043Z,21.10
2022-08-22T22:43:28.736Z,21.00
2022-08-22T22:45:32.299Z,21.00
2022-08-22T22:47:36.178Z,21.00
2022-08-22T22:49:39.931Z,20.90
2022-08-22T22:51:43.453Z,20.90
2022-08-22T22:53:47.631Z,21.00
2022-08-22T22:55:59.968Z,20.90
2022-08-22T22:57:59.261Z,20.90
2022-08-22T23:00:29.208Z,21.00
2022-08-22T23:02:49.012Z,21.00
2022-08-22T23:04:57.361Z,20.90
2022-08-22T23:07:01.322Z,20.80
2022-08-22T23:09:04.872Z,20.90
2022-08-22T23:11:13.501Z,20.90
2022-08-22T23:13:17.500Z,21.00
2022-08-22T23:15:21.546Z,21.10
2022-08-22T23:17:25.644Z,21.10
2022-08-22T23:19:29.716Z,21.20
2022-08-22T23:21:34.502Z,21.20
2022-08-22T23:23:39.400Z,21.20
2022-08-22T23:25:44.236Z,21.20
2022-08-22T23:27:52.570Z,21.20
2022-08-22T23:29:55.338Z,21.20
2022-08-22T23:32:02.159Z,21.10
2022-08-22T23:34:09.794Z,21.10
2022-08-22T23:36:16.330Z,21.10
2022-08-22T23:38:21.274Z,21.10
2022-08-22T23:40:27.067Z,21.00
2022-08-22T23:42:32.206Z,21.00
2022-08-22T23:44:37.608Z,20.90
2022-08-22T23:46:42.107Z,20.90
2022-08-22T23:48:45.980Z,20.90
2022-08-22T23:50:49.564Z,20.80
2022-08-22T23:52:53.202Z,20.70
2022-08-22T23:54:56.668Z,20.70
2022-08-22T23:57:03.876Z,20.60
2022-08-22T23:59:12.475Z,20.50
